Time;durP1;ratioP1;P1;durP2;ratioP2;P2;SDS_P1;SDS_P2;PMS_P1;PMS_P2;Temp;Humidity;BMP_temperature;BMP_pressure;BME280_temperature;BME280_humidity;BME280_pressure;Samples;Min_cycle;Max_cycle;Signal;HPM_P1;HPM_P2
2022/04/24 00:00:18;;;;;;;24.15;19.25;;;9.90;82.60;;;;;;5033033;28;20244;-63
2022/04/24 00:02:46;;;;;;;23.10;17.92;;;9.90;82.90;;;;;;5032593;28;20206;-63
2022/04/24 00:05:13;;;;;;;23.63;17.98;;;9.90;83.40;;;;;;5031889;28;20262;-63
2022/04/24 00:07:41;;;;;;;27.35;18.77;;;9.90;84.20;;;;;;5032418;28;20187;-62
2022/04/24 00:10:10;;;;;;;25.20;17.63;;;9.90;84.50;;;;;;5032874;28;20195;-63
2022/04/24 00:12:37;;;;;;;21.92;16.08;;;9.80;84.70;;;;;;5032099;28;20195;-63
2022/04/24 00:15:05;;;;;;;24.70;18.13;;;9.80;85.00;;;;;;5032680;28;20241;-63
2022/04/24 00:17:32;;;;;;;22.95;17.65;;;9.80;85.50;;;;;;5032148;28;20191;-63
2022/04/24 00:20:00;;;;;;;24.85;17.58;;;9.80;85.50;;;;;;5032413;28;20290;-63
2022/04/24 00:22:27;;;;;;;28.80;20.17;;;9.70;85.10;;;;;;5032241;28;20190;-64
2022/04/24 00:24:55;;;;;;;23.58;17.33;;;9.70;85.40;;;;;;5032442;28;20288;-62
2022/04/24 00:27:23;;;;;;;23.08;18.70;;;9.70;85.10;;;;;;5031985;28;20215;-62
2022/04/24 00:29:51;;;;;;;25.20;18.60;;;9.70;85.20;;;;;;5032346;28;20278;-63
2022/04/24 00:32:18;;;;;;;20.42;15.95;;;9.80;85.50;;;;;;5031970;28;20668;-63
2022/04/24 00:34:45;;;;;;;23.45;18.42;;;9.70;85.20;;;;;;5032492;28;20218;-62
2022/04/24 00:37:12;;;;;;;28.00;18.65;;;9.60;83.20;;;;;;5032114;28;20203;-63
2022/04/24 00:39:39;;;;;;;28.17;19.48;;;9.60;83.30;;;;;;5032340;28;20610;-62
2022/04/24 00:42:10;;;;;;;26.80;19.00;;;9.50;83.30;;;;;;5031546;28;20666;-62
2022/04/24 00:44:37;;;;;;;28.00;19.48;;;9.50;83.90;;;;;;5031977;28;20219;-63
2022/04/24 00:47:10;;;;;;;27.42;18.88;;;9.50;84.60;;;;;;5032150;28;20191;-63
2022/04/24 00:49:37;;;;;;;21.30;17.23;;;9.40;84.90;;;;;;5032422;28;20232;-62
2022/04/24 00:52:05;;;;;;;26.85;20.00;;;9.50;86.00;;;;;;5031867;28;20187;-63
2022/04/24 00:54:33;;;;;;;25.15;18.50;;;9.50;86.60;;;;;;5032383;28;20577;-62
2022/04/24 00:57:00;;;;;;;24.52;19.70;;;9.60;87.00;;;;;;5031763;28;20193;-63
2022/04/24 00:59:29;;;;;;;26.02;19.65;;;9.70;87.50;;;;;;5032015;28;20191;-63
2022/04/24 01:01:57;;;;;;;29.60;20.45;;;9.70;88.00;;;;;;5031148;28;20215;-64
2022/04/24 01:04:24;;;;;;;25.48;19.73;;;9.70;87.80;;;;;;5032021;28;20682;-63
2022/04/24 01:06:52;;;;;;;22.77;18.42;;;9.70;87.50;;;;;;5031993;28;20199;-63
2022/04/24 01:09:23;;;;;;;24.70;20.70;;;9.60;87.90;;;;;;5032139;28;20199;-63
2022/04/24 01:11:52;;;;;;;23.60;20.00;;;9.60;87.80;;;;;;5031576;28;20617;-62
2022/04/24 01:14:20;;;;;;;28.23;19.13;;;9.60;88.00;;;;;;5032195;28;20191;-63
2022/04/24 01:16:50;;;;;;;25.58;19.95;;;9.60;87.90;;;;;;5034067;28;20257;-63
2022/04/24 01:19:18;;;;;;;23.73;18.75;;;9.60;87.30;;;;;;5035705;28;20191;-62
2022/04/24 01:21:47;;;;;;;28.50;20.35;;;9.60;87.60;;;;;;5035619;28;20241;-63
2022/04/24 01:24:16;;;;;;;29.13;21.55;;;9.60;87.80;;;;;;5035590;28;20265;-62
2022/04/24 01:26:43;;;;;;;27.80;19.83;;;9.60;88.40;;;;;;5035334;28;20187;-63
2022/04/24 01:29:11;;;;;;;28.33;21.05;;;9.60;88.40;;;;;;5035611;28;20256;-62
2022/04/24 01:31:39;;;;;;;31.75;19.65;;;9.60;88.80;;;;;;5035112;28;20195;-63
2022/04/24 01:34:06;;;;;;;27.35;21.58;;;9.60;88.90;;;;;;5035763;28;20245;-63
2022/04/24 01:36:33;;;;;;;26.75;19.23;;;9.60;89.20;;;;;;5035231;28;20188;-63
2022/04/24 01:39:02;;;;;;;27.05;20.45;;;9.70;89.30;;;;;;5035452;28;20205;-63
2022/04/24 01:41:30;;;;;;;26.25;18.45;;;9.60;88.70;;;;;;5034399;28;20779;-63
2022/04/24 01:43:57;;;;;;;23.88;17.88;;;9.60;88.00;;;;;;5035109;28;20198;-63
2022/04/24 01:46:25;;;;;;;26.35;19.05;;;9.50;87.50;;;;;;5035046;28;20187;-63
2022/04/24 01:48:52;;;;;;;27.58;20.38;;;9.50;87.80;;;;;;5035229;28;20233;-63
2022/04/24 01:51:19;;;;;;;25.02;19.92;;;9.50;88.10;;;;;;5034834;28;20211;-63
2022/04/24 01:53:46;;;;;;;28.10;19.13;;;9.50;88.40;;;;;;5035218;28;20183;-63
2022/04/24 01:56:15;;;;;;;27.42;20.30;;;9.40;88.70;;;;;;5034966;28;20206;-63
2022/04/24 01:58:42;;;;;;;25.63;18.92;;;9.40;88.60;;;;;;5034828;28;20191;-62
2022/04/24 02:01:09;;;;;;;27.08;20.33;;;9.40;88.90;;;;;;5034886;28;20596;-63
2022/04/24 02:03:37;;;;;;;25.48;19.27;;;9.40;89.00;;;;;;5034714;28;20187;-63
2022/04/24 02:06:06;;;;;;;24.00;19.50;;;9.40;89.30;;;;;;5034935;28;20686;-63
2022/04/24 02:08:35;;;;;;;27.77;19.63;;;9.30;90.00;;;;;;5034403;28;20318;-63
2022/04/24 02:11:02;;;;;;;24.83;18.70;;;9.30;90.10;;;;;;5034935;28;20207;-62
2022/04/24 02:13:31;;;;;;;26.02;19.33;;;9.30;90.20;;;;;;5034775;28;20194;-63
2022/04/24 02:15:58;;;;;;;26.80;20.98;;;9.30;90.20;;;;;;5034181;28;20191;-63
2022/04/24 02:18:25;;;;;;;26.55;20.67;;;9.20;90.60;;;;;;5034828;28;20199;-63
2022/04/24 02:20:52;;;;;;;29.05;20.60;;;9.20;91.00;;;;;;5033953;28;20198;-62
2022/04/24 02:23:20;;;;;;;27.27;21.63;;;9.10;91.20;;;;;;5034677;28;20191;-63
2022/04/24 02:25:47;;;;;;;26.90;19.45;;;9.00;91.70;;;;;;5034120;28;20269;-63
2022/04/24 02:28:14;;;;;;;24.42;17.88;;;8.90;91.40;;;;;;5033829;28;20238;-62
2022/04/24 02:30:42;;;;;;;27.60;20.02;;;8.90;91.00;;;;;;5033930;28;20678;-63
2022/04/24 02:33:10;;;;;;;27.35;21.13;;;8.90;90.60;;;;;;5034540;28;20202;-63
2022/04/24 02:35:37;;;;;;;25.17;18.95;;;8.90;90.50;;;;;;5034152;28;20278;-63
2022/04/24 02:38:04;;;;;;;25.77;18.80;;;8.90;90.60;;;;;;5034201;28;20548;-63
2022/04/24 02:40:32;;;;;;;27.02;19.95;;;8.90;90.70;;;;;;5033840;28;20187;-63
2022/04/24 02:42:59;;;;;;;29.48;20.95;;;9.00;90.60;;;;;;5034750;28;20235;-64
2022/04/24 02:45:26;;;;;;;30.80;21.77;;;8.90;91.00;;;;;;5033701;28;20302;-62
2022/04/24 02:47:54;;;;;;;27.52;21.25;;;8.90;91.00;;;;;;5034386;28;20195;-63
2022/04/24 02:50:23;;;;;;;31.75;21.35;;;8.90;91.00;;;;;;5033673;28;20253;-62
2022/04/24 02:52:52;;;;;;;28.10;20.23;;;8.90;91.30;;;;;;5033983;28;20191;-63
2022/04/24 02:55:19;;;;;;;27.10;19.98;;;8.90;91.60;;;;;;5033688;28;20527;-63
2022/04/24 02:57:47;;;;;;;28.92;21.75;;;8.90;91.80;;;;;;5034045;28;20191;-63
2022/04/24 03:00:19;;;;;;;23.02;17.83;;;8.90;92.10;;;;;;5033451;28;20194;-62
2022/04/24 03:02:47;;;;;;;29.45;21.63;;;8.90;92.20;;;;;;5033709;28;20202;-62
2022/04/24 03:05:17;;;;;;;29.75;21.83;;;8.90;92.30;;;;;;5033706;28;20686;-63
2022/04/24 03:07:44;;;;;;;33.47;22.63;;;8.90;92.30;;;;;;5033760;28;20187;-63
2022/04/24 03:10:12;;;;;;;29.75;23.20;;;9.00;92.40;;;;;;5033096;28;20194;-63
2022/04/24 03:12:40;;;;;;;36.35;25.35;;;9.10;92.60;;;;;;5033598;28;20199;-63
2022/04/24 03:15:10;;;;;;;38.10;25.95;;;9.10;92.70;;;;;;5033344;28;20194;-63
2022/04/24 03:17:37;;;;;;;34.85;23.88;;;9.10;92.80;;;;;;5033648;28;20202;-63
2022/04/24 03:20:06;;;;;;;31.65;22.48;;;9.10;92.90;;;;;;5033256;28;20195;-63
2022/04/24 03:22:35;;;;;;;35.17;23.92;;;9.20;92.70;;;;;;5033460;28;20187;-63
2022/04/24 03:25:04;;;;;;;36.17;23.63;;;9.20;92.40;;;;;;5032946;28;20273;-63
2022/04/24 03:27:31;;;;;;;31.45;22.42;;;9.20;92.10;;;;;;5033649;28;20226;-63
2022/04/24 03:29:58;;;;;;;31.70;21.20;;;9.20;92.10;;;;;;5033116;28;20195;-63
2022/04/24 03:32:26;;;;;;;30.10;21.90;;;9.20;92.10;;;;;;5033496;28;20191;-63
2022/04/24 03:34:53;;;;;;;31.23;21.98;;;9.30;92.10;;;;;;5033004;28;20190;-63
2022/04/24 03:37:20;;;;;;;31.38;22.52;;;9.30;92.20;;;;;;5033282;28;20676;-63
2022/04/24 03:39:49;;;;;;;33.80;25.05;;;9.30;92.20;;;;;;5032772;28;20187;-63
2022/04/24 03:42:16;;;;;;;33.25;21.58;;;9.30;92.20;;;;;;5033110;28;20231;-63
2022/04/24 03:44:43;;;;;;;33.75;23.52;;;9.40;92.10;;;;;;5032801;28;20672;-63
2022/04/24 03:47:10;;;;;;;39.05;24.88;;;9.40;92.00;;;;;;5033176;28;20697;-63
2022/04/24 03:49:37;;;;;;;34.65;24.15;;;9.40;92.00;;;;;;5032716;28;20245;-63
2022/04/24 03:52:05;;;;;;;33.15;23.50;;;9.40;92.00;;;;;;5033021;28;20665;-63
2022/04/24 03:54:32;;;;;;;34.97;23.65;;;9.40;91.90;;;;;;5032715;28;20270;-63
2022/04/24 03:57:01;;;;;;;35.70;23.98;;;9.30;91.50;;;;;;5033124;28;20253;-63
2022/04/24 03:59:29;;;;;;;32.72;25.58;;;9.30;91.50;;;;;;5032435;28;20187;-63
2022/04/24 04:01:56;;;;;;;33.95;24.35;;;9.30;91.90;;;;;;5033075;28;20201;-63
2022/04/24 04:04:23;;;;;;;27.13;19.60;;;9.30;92.20;;;;;;5032554;28;20609;-63
2022/04/24 04:06:51;;;;;;;29.65;22.17;;;9.30;92.20;;;;;;5032894;28;20254;-63
2022/04/24 04:09:18;;;;;;;35.28;25.50;;;9.30;92.20;;;;;;5032618;28;20214;-63
2022/04/24 04:11:45;;;;;;;34.33;23.75;;;9.30;92.30;;;;;;5032905;28;20202;-63
2022/04/24 04:14:13;;;;;;;29.95;21.17;;;9.20;92.50;;;;;;5032381;28;20241;-62
2022/04/24 04:16:41;;;;;;;31.13;22.10;;;9.20;92.00;;;;;;5032842;28;20654;-63
2022/04/24 04:19:08;;;;;;;33.35;21.45;;;9.20;91.20;;;;;;5032282;28;20241;-62
2022/04/24 04:21:35;;;;;;;29.58;22.15;;;9.20;91.20;;;;;;5032908;28;20191;-63
2022/04/24 04:24:02;;;;;;;32.15;22.70;;;9.10;91.10;;;;;;5031906;28;20183;-62
2022/04/24 04:26:29;;;;;;;30.40;21.42;;;9.10;91.40;;;;;;5032593;28;20226;-63
2022/04/24 04:28:57;;;;;;;30.02;21.00;;;9.10;91.70;;;;;;5032171;28;20183;-63
2022/04/24 04:31:25;;;;;;;31.45;22.95;;;9.10;91.90;;;;;;5032740;28;20285;-63
2022/04/24 04:33:52;;;;;;;30.63;22.60;;;9.10;91.90;;;;;;5032239;28;20594;-65
2022/04/24 04:36:19;;;;;;;26.95;20.55;;;9.20;91.90;;;;;;5032472;28;20719;-64
2022/04/24 04:38:47;;;;;;;28.27;21.58;;;9.20;92.00;;;;;;5032145;28;20349;-64
2022/04/24 04:41:14;;;;;;;27.92;20.92;;;9.30;92.10;;;;;;5031977;28;20763;-63
2022/04/24 04:43:41;;;;;;;29.83;22.13;;;9.30;92.00;;;;;;5032076;28;20191;-63
2022/04/24 04:46:08;;;;;;;32.15;20.90;;;9.30;92.10;;;;;;5032279;28;20620;-64
2022/04/24 04:48:37;;;;;;;29.40;20.60;;;9.40;92.10;;;;;;5032272;28;20183;-63
2022/04/24 04:51:04;;;;;;;30.10;20.58;;;9.40;92.30;;;;;;5031844;28;20195;-63
2022/04/24 04:53:34;;;;;;;32.28;22.17;;;9.50;92.10;;;;;;5031998;28;20211;-63
2022/04/24 04:56:02;;;;;;;28.85;22.58;;;9.50;91.60;;;;;;5032269;28;20195;-63
2022/04/24 04:58:29;;;;;;;27.25;19.70;;;9.40;91.50;;;;;;5031919;28;20223;-63
2022/04/24 05:00:57;;;;;;;32.00;22.48;;;9.40;92.00;;;;;;5032062;28;20197;-63
2022/04/24 05:03:24;;;;;;;28.73;22.23;;;9.30;92.20;;;;;;5031944;28;20190;-62
2022/04/24 05:05:52;;;;;;;29.15;20.85;;;9.30;92.50;;;;;;5032364;28;20308;-63
2022/04/24 05:08:19;;;;;;;28.05;21.10;;;9.40;92.80;;;;;;5032090;28;20183;-63
2022/04/24 05:10:46;;;;;;;32.25;23.50;;;9.40;92.80;;;;;;5032028;28;20249;-63
2022/04/24 05:13:13;;;;;;;29.42;21.25;;;9.50;92.80;;;;;;5031689;28;20215;-63
2022/04/24 05:15:40;;;;;;;26.92;20.40;;;9.50;92.50;;;;;;5031889;28;20194;-63
2022/04/24 05:18:07;;;;;;;26.20;21.88;;;9.60;92.40;;;;;;5031456;28;20179;-63
2022/04/24 05:20:36;;;;;;;28.25;21.05;;;9.60;92.20;;;;;;5032126;28;20238;-63
2022/04/24 05:23:08;;;;;;;30.85;22.50;;;9.70;92.30;;;;;;5031975;28;20253;-63
2022/04/24 05:25:36;;;;;;;30.10;21.85;;;9.70;92.10;;;;;;5031979;28;20671;-63
2022/04/24 05:28:04;;;;;;;28.48;20.52;;;9.70;92.10;;;;;;5031731;28;20187;-63
2022/04/24 05:30:33;;;;;;;25.92;19.40;;;9.80;92.30;;;;;;5031831;28;20226;-63
2022/04/24 05:33:00;;;;;;;26.58;19.38;;;9.90;92.60;;;;;;5031662;28;20205;-63
2022/04/24 05:35:27;;;;;;;23.25;18.73;;;10.00;92.40;;;;;;5032026;28;20584;-63
2022/04/24 05:37:55;;;;;;;23.98;18.25;;;10.10;92.30;;;;;;5031547;28;20194;-67
2022/04/24 05:40:23;;;;;;;25.88;19.00;;;10.20;92.20;;;;;;5032002;28;20199;-63
2022/04/24 05:42:53;;;;;;;27.77;18.13;;;10.30;92.10;;;;;;5031345;28;20227;-63
2022/04/24 05:45:22;;;;;;;24.75;17.70;;;10.40;91.90;;;;;;5031908;28;20188;-62
2022/04/24 05:47:50;;;;;;;20.17;15.77;;;10.50;91.80;;;;;;5031015;28;20191;-63
2022/04/24 05:50:17;;;;;;;23.27;15.70;;;10.70;91.70;;;;;;5031921;28;20287;-63
2022/04/24 05:52:44;;;;;;;18.88;15.13;;;10.90;91.70;;;;;;5031280;28;20241;-63
2022/04/24 05:55:12;;;;;;;19.45;14.40;;;11.10;91.80;;;;;;5031482;28;20270;-63
2022/04/24 05:57:41;;;;;;;22.17;15.07;;;11.20;91.50;;;;;;5031760;28;20187;-63
2022/04/24 06:00:11;;;;;;;12.50;10.07;;;11.40;91.40;;;;;;5031548;28;20206;-63
2022/04/24 06:02:39;;;;;;;6.85;5.68;;;11.50;91.20;;;;;;5032624;28;20241;-63
2022/04/24 06:05:07;;;;;;;4.68;3.40;;;11.70;90.40;;;;;;5035028;28;20252;-64
2022/04/24 06:07:34;;;;;;;4.20;2.63;;;11.80;85.80;;;;;;5035030;28;20674;-63
2022/04/24 06:10:01;;;;;;;4.95;2.92;;;11.90;82.00;;;;;;5034351;28;20630;-63
2022/04/24 06:12:29;;;;;;;3.60;2.83;;;12.00;81.10;;;;;;5034486;28;20195;-63
2022/04/24 06:15:03;;;;;;;3.78;2.80;;;12.20;80.60;;;;;;5035169;28;20198;-63
2022/04/24 06:17:30;;;;;;;4.65;2.40;;;12.50;81.00;;;;;;5034926;28;20402;-63
2022/04/24 06:19:57;;;;;;;3.03;2.08;;;12.80;81.10;;;;;;5035180;28;20199;-63
2022/04/24 06:22:24;;;;;;;2.88;1.83;;;13.00;78.30;;;;;;5034940;28;20265;-64
2022/04/24 06:24:51;;;;;;;2.72;1.88;;;13.20;75.10;;;;;;5034050;28;20531;-63
2022/04/24 06:27:18;;;;;;;2.80;1.40;;;13.20;71.60;;;;;;5035080;28;20612;-63
2022/04/24 06:29:46;;;;;;;2.53;1.27;;;13.30;69.60;;;;;;5034430;28;20839;-63
2022/04/24 06:32:14;;;;;;;5.22;1.50;;;13.40;68.30;;;;;;5034824;28;20474;-63
2022/04/24 06:34:41;;;;;;;3.10;1.40;;;13.60;69.40;;;;;;5034388;28;20269;-63
2022/04/24 06:37:08;;;;;;;2.03;1.20;;;13.80;68.50;;;;;;5034479;28;20442;-63
2022/04/24 06:39:35;;;;;;;2.20;1.20;;;14.00;68.60;;;;;;5034159;28;20226;-63
2022/04/24 06:42:03;;;;;;;2.27;1.47;;;14.20;67.50;;;;;;5034150;28;20521;-63
2022/04/24 06:44:30;;;;;;;1.90;1.00;;;14.40;64.70;;;;;;5034110;28;20450;-63
2022/04/24 06:46:57;;;;;;;2.10;1.07;;;14.50;62.60;;;;;;5034330;28;20485;-64
2022/04/24 06:49:26;;;;;;;3.00;1.10;;;14.70;61.40;;;;;;5034153;28;20998;-63
2022/04/24 06:51:53;;;;;;;1.70;0.70;;;14.80;59.40;;;;;;5033929;28;20986;-64
2022/04/24 06:54:20;;;;;;;5.03;1.30;;;15.00;59.60;;;;;;5034616;28;20449;-63
2022/04/24 06:56:47;;;;;;;2.60;1.23;;;15.20;59.90;;;;;;5033925;28;20446;-64
2022/04/24 06:59:14;;;;;;;1.70;0.87;;;15.40;58.90;;;;;;5034129;28;20473;-63
2022/04/24 07:01:44;;;;;;;1.50;0.70;;;15.60;58.60;;;;;;5033453;28;20461;-64
2022/04/24 07:04:11;;;;;;;3.00;0.93;;;15.70;58.20;;;;;;5033834;28;20477;-63
2022/04/24 07:06:40;;;;;;;1.87;0.73;;;15.90;57.00;;;;;;5033588;28;20478;-63
2022/04/24 07:09:07;;;;;;;1.97;0.87;;;16.10;57.20;;;;;;5034042;28;20437;-64
2022/04/24 07:11:35;;;;;;;2.67;0.80;;;16.20;56.10;;;;;;5033706;28;20462;-64
2022/04/24 07:14:02;;;;;;;1.70;0.63;;;16.30;55.20;;;;;;5033748;28;20438;-63
2022/04/24 07:16:29;;;;;;;3.23;2.00;;;16.50;54.00;;;;;;5033477;28;20850;-64
2022/04/24 07:18:56;;;;;;;3.00;1.50;;;16.50;54.50;;;;;;5033963;28;20953;-64
2022/04/24 07:21:25;;;;;;;4.50;0.90;;;16.60;54.20;;;;;;5033297;28;20441;-64
2022/04/24 07:23:54;;;;;;;2.37;0.73;;;16.70;52.00;;;;;;5033750;28;20442;-63
2022/04/24 07:26:21;;;;;;;1.60;0.60;;;16.70;50.90;;;;;;5033070;28;20488;-64
2022/04/24 07:28:48;;;;;;;2.20;0.70;;;16.80;50.50;;;;;;5033794;28;20844;-63
2022/04/24 07:31:18;;;;;;;1.60;0.60;;;16.80;49.70;;;;;;5033252;28;20442;-64
2022/04/24 07:33:45;;;;;;;1.70;0.80;;;16.90;49.50;;;;;;5033765;28;20779;-63
2022/04/24 07:36:12;;;;;;;2.00;0.70;;;17.00;49.10;;;;;;5033221;28;20805;-63
2022/04/24 07:38:40;;;;;;;1.50;0.67;;;17.10;47.10;;;;;;5033418;28;20449;-63
2022/04/24 07:41:08;;;;;;;1.50;0.80;;;17.20;47.80;;;;;;5032836;28;20552;-64
2022/04/24 07:43:36;;;;;;;1.60;0.60;;;17.30;46.50;;;;;;5033498;28;20971;-63
2022/04/24 07:46:03;;;;;;;2.53;0.80;;;17.50;47.00;;;;;;5033283;28;20441;-64
2022/04/24 07:48:30;;;;;;;1.50;0.63;;;17.60;46.80;;;;;;5033028;28;20466;-65
2022/04/24 07:50:57;;;;;;;1.87;0.67;;;17.80;46.80;;;;;;5033370;28;20804;-65
2022/04/24 07:53:25;;;;;;;5.10;1.07;;;18.10;46.90;;;;;;5032727;28;20434;-65
2022/04/24 07:55:52;;;;;;;1.50;0.50;;;18.30;44.70;;;;;;5033028;28;20532;-63
2022/04/24 07:58:20;;;;;;;1.60;0.50;;;18.50;44.20;;;;;;5032733;28;20806;-64
2022/04/24 08:00:48;;;;;;;3.50;0.70;;;18.70;43.90;;;;;;5033146;28;20485;-64
2022/04/24 08:03:19;;;;;;;1.53;0.50;;;18.80;42.90;;;;;;5032373;28;20453;-64
2022/04/24 08:05:48;;;;;;;2.13;0.70;;;18.90;42.90;;;;;;5032983;28;20478;-63
2022/04/24 08:08:17;;;;;;;1.50;0.67;;;19.00;40.80;;;;;;5032799;28;20477;-63
2022/04/24 08:10:47;;;;;;;1.70;0.60;;;19.10;39.90;;;;;;5032619;28;20430;-63
2022/04/24 08:13:15;;;;;;;1.50;0.60;;;19.30;40.70;;;;;;5032395;28;20438;-64
2022/04/24 08:15:44;;;;;;;2.00;0.60;;;19.50;41.00;;;;;;5032968;28;20516;-63
2022/04/24 08:18:12;;;;;;;1.50;0.60;;;19.90;40.90;;;;;;5032653;28;20512;-64
2022/04/24 08:20:40;;;;;;;2.00;0.53;;;20.20;42.10;;;;;;5032330;28;20468;-64
2022/04/24 08:23:08;;;;;;;2.53;1.00;;;20.50;40.60;;;;;;5029106;28;20438;-64
2022/04/24 08:25:37;;;;;;;2.07;0.97;;;20.60;37.60;;;;;;5029558;28;20442;-64
2022/04/24 08:28:06;;;;;;;1.70;0.60;;;20.60;37.30;;;;;;5030957;28;20489;-64
2022/04/24 08:30:34;;;;;;;1.50;0.60;;;20.60;37.10;;;;;;5030796;28;20446;-64
2022/04/24 08:33:03;;;;;;;1.50;0.50;;;20.60;37.10;;;;;;5030559;28;20441;-65
2022/04/24 08:35:30;;;;;;;1.50;0.60;;;20.80;38.90;;;;;;5026614;28;20438;-64
2022/04/24 08:37:57;;;;;;;1.67;0.50;;;21.00;38.90;;;;;;5031226;28;20442;-65
2022/04/24 08:40:25;;;;;;;1.50;0.60;;;21.40;38.70;;;;;;5027321;28;20780;-66
2022/04/24 08:42:52;;;;;;;2.23;0.60;;;21.80;36.80;;;;;;5030343;28;20469;-64
2022/04/24 08:45:19;;;;;;;3.97;0.77;;;22.10;35.20;;;;;;5030496;28;20456;-63
2022/04/24 08:47:46;;;;;;;1.50;0.50;;;22.30;33.90;;;;;;5030274;28;20491;-64
2022/04/24 08:50:14;;;;;;;1.63;0.50;;;22.30;33.20;;;;;;5027451;28;20488;-63
2022/04/24 08:52:44;;;;;;;1.47;0.50;;;22.20;31.10;;;;;;5029562;28;20524;-64
2022/04/24 08:55:12;;;;;;;1.80;0.60;;;22.00;31.30;;;;;;5030290;28;20450;-64
2022/04/24 08:57:39;;;;;;;2.70;0.60;;;21.80;31.60;;;;;;5030860;28;20529;-63
2022/04/24 09:00:09;;;;;;;1.40;0.50;;;21.80;31.00;;;;;;5028478;28;22200;-68
2022/04/24 09:02:36;;;;;;;1.87;0.50;;;21.60;31.10;;;;;;5028953;28;20762;-63
2022/04/24 09:05:06;;;;;;;2.47;1.50;;;21.40;30.70;;;;;;5030442;28;20446;-63
2022/04/24 09:07:36;;;;;;;2.10;0.70;;;21.20;31.80;;;;;;5030375;28;20528;-64
2022/04/24 09:10:07;;;;;;;1.73;0.60;;;21.10;31.60;;;;;;5026227;28;20438;-64
2022/04/24 09:12:35;;;;;;;1.70;0.40;;;21.00;32.60;;;;;;5030445;28;20434;-63
2022/04/24 09:15:02;;;;;;;1.60;0.60;;;20.90;32.70;;;;;;5029898;28;20433;-65
2022/04/24 09:17:30;;;;;;;1.40;0.50;;;20.80;32.30;;;;;;5030489;28;20438;-64
2022/04/24 09:19:58;;;;;;;1.77;0.70;;;20.70;32.30;;;;;;5030220;28;20480;-64
2022/04/24 09:22:26;;;;;;;1.73;0.60;;;20.50;32.50;;;;;;5030140;28;20441;-63
2022/04/24 09:24:56;;;;;;;1.40;0.50;;;20.30;32.30;;;;;;5030213;28;20492;-64
2022/04/24 09:27:27;;;;;;;1.80;0.70;;;20.00;32.50;;;;;;5030074;28;20565;-63
2022/04/24 09:29:56;;;;;;;1.47;0.53;;;19.70;33.20;;;;;;5030500;28;20437;-63
2022/04/24 09:32:25;;;;;;;1.47;0.50;;;19.40;33.70;;;;;;5029702;28;20457;-64
2022/04/24 09:34:53;;;;;;;2.10;1.10;;;19.10;34.20;;;;;;5030334;28;20762;-63
2022/04/24 09:37:21;;;;;;;1.70;0.60;;;18.90;34.20;;;;;;5031084;28;20460;-64
2022/04/24 09:39:52;;;;;;;1.70;0.60;;;18.60;34.20;;;;;;5033966;28;20844;-65
2022/04/24 09:42:21;;;;;;;1.80;0.60;;;18.40;34.80;;;;;;5031215;28;20808;-64
2022/04/24 09:44:50;;;;;;;1.50;0.53;;;18.20;35.10;;;;;;5034287;28;20823;-63
2022/04/24 09:47:19;;;;;;;1.70;0.80;;;18.10;35.70;;;;;;5033790;28;20484;-63
2022/04/24 09:49:49;;;;;;;1.80;0.70;;;18.10;36.00;;;;;;5033882;28;20446;-63
2022/04/24 09:52:18;;;;;;;2.13;0.60;;;18.20;36.00;;;;;;5033379;28;20511;-63
2022/04/24 09:54:46;;;;;;;1.53;0.50;;;18.30;36.20;;;;;;5033926;28;20430;-64
2022/04/24 09:57:15;;;;;;;1.50;0.60;;;18.40;36.60;;;;;;5032722;28;20485;-66
2022/04/24 09:59:45;;;;;;;1.70;0.57;;;18.50;37.00;;;;;;5033518;28;20430;-64
2022/04/24 10:02:14;;;;;;;1.40;0.50;;;18.60;36.60;;;;;;5033870;28;20492;-63
2022/04/24 10:04:42;;;;;;;3.30;1.00;;;18.50;35.00;;;;;;5033702;28;20917;-63
2022/04/24 10:07:11;;;;;;;1.50;0.50;;;18.30;35.50;;;;;;5033016;28;20484;-64
2022/04/24 10:09:41;;;;;;;1.60;0.70;;;18.30;35.90;;;;;;5033618;28;20500;-63
2022/04/24 10:12:10;;;;;;;1.93;0.60;;;18.40;36.30;;;;;;5030046;28;20470;-66
2022/04/24 10:14:43;;;;;;;1.60;0.60;;;18.40;36.20;;;;;;5025978;28;20477;-65
2022/04/24 10:17:37;;;;;;;1.40;0.60;;;18.40;36.70;;;;;;5031654;28;20469;-64
2022/04/24 10:20:23;;;;;;;1.70;0.90;;;18.40;36.50;;;;;;5030351;28;20496;-64
2022/04/24 10:22:54;;;;;;;1.60;0.57;;;18.70;37.90;;;;;;5031120;28;20512;-64
2022/04/24 10:25:32;;;;;;;2.13;0.60;;;19.00;37.80;;;;;;5031811;28;20479;-65
2022/04/24 10:28:22;;;;;;;1.60;0.50;;;19.00;36.70;;;;;;5029418;28;20849;-64
2022/04/24 10:30:59;;;;;;;1.50;0.50;;;18.90;36.00;;;;;;5031479;28;20464;-63
2022/04/24 10:33:29;;;;;;;1.40;0.50;;;18.70;36.10;;;;;;5030774;28;20859;-64
2022/04/24 10:35:59;;;;;;;1.57;0.50;;;18.60;36.10;;;;;;5026461;28;20430;-64
2022/04/24 10:38:29;;;;;;;1.40;0.50;;;18.40;36.00;;;;;;5031453;28;20446;-65
2022/04/24 10:41:01;;;;;;;1.97;1.27;;;18.20;36.50;;;;;;5031395;28;20525;-65
2022/04/24 10:43:39;;;;;;;1.93;0.70;;;18.00;36.20;;;;;;5028870;28;20444;-64
2022/04/24 10:46:20;;;;;;;2.80;0.80;;;17.80;36.50;;;;;;5031145;28;20446;-65
2022/04/24 10:48:49;;;;;;;1.40;0.50;;;17.80;37.30;;;;;;5026367;28;20493;-63
2022/04/24 10:51:32;;;;;;;1.57;0.60;;;17.70;37.30;;;;;;5030874;28;20821;-69
2022/04/24 10:54:04;;;;;;;1.60;0.63;;;17.60;37.60;;;;;;5021240;28;20536;-64
2022/04/24 10:56:49;;;;;;;1.40;0.50;;;17.50;37.30;;;;;;5030544;28;20465;-65
2022/04/24 10:59:26;;;;;;;1.50;0.70;;;17.40;37.40;;;;;;5031944;28;20418;-63
2022/04/24 11:02:09;;;;;;;;;;;;;;;;;;;;;
2022/04/24 11:04:53;;;;;;;2.37;0.60;;;17.20;37.70;;;;;;5029980;28;20430;-64
2022/04/24 11:07:25;;;;;;;2.00;1.00;;;17.00;37.70;;;;;;5030113;28;20528;-63
2022/04/24 11:10:02;;;;;;;2.57;1.23;;;16.90;37.50;;;;;;5030496;28;20781;-63
2022/04/24 11:12:31;;;;;;;2.00;0.80;;;16.80;37.70;;;;;;5028329;28;20868;-64
2022/04/24 11:15:03;;;;;;;8.83;4.80;;;16.70;37.50;;;;;;5032057;28;20453;-65
2022/04/24 11:17:34;;;;;;;2.57;0.90;;;16.70;38.20;;;;;;5029807;28;20449;-63
2022/04/24 11:20:08;;;;;;;3.50;1.53;;;16.70;38.80;;;;;;5030667;28;20452;-64
2022/04/24 11:22:48;;;;;;;1.80;0.83;;;16.70;38.40;;;;;;5029332;28;20536;-63
2022/04/24 11:25:19;;;;;;;1.90;0.60;;;16.70;38.30;;;;;;5030348;28;20450;-63
2022/04/24 11:28:00;;;;;;;2.20;0.80;;;16.70;38.10;;;;;;5027195;28;20572;-64
2022/04/24 11:30:31;;;;;;;1.90;0.70;;;16.70;38.20;;;;;;5023595;28;20517;-65
2022/04/24 11:33:04;;;;;;;3.23;0.90;;;16.80;38.70;;;;;;5027071;28;20518;-63
2022/04/24 11:35:35;;;;;;;1.87;0.60;;;17.10;38.80;;;;;;5029519;28;20944;-63
2022/04/24 11:38:03;;;;;;;1.90;0.90;;;17.30;38.20;;;;;;5029854;28;20858;-64
2022/04/24 11:40:33;;;;;;;3.00;1.00;;;17.50;38.00;;;;;;5030649;28;20442;-63
2022/04/24 11:43:03;;;;;;;1.47;0.50;;;17.90;37.80;;;;;;5029773;28;21764;-63
2022/04/24 11:51:13;;;;;;;1.77;0.80;;;18.90;35.40;;;;;;5030597;28;20452;-63
2022/04/24 11:53:42;;;;;;;2.60;0.53;;;19.00;34.70;;;;;;5029456;28;20445;-65
2022/04/24 11:56:10;;;;;;;2.50;0.67;;;19.00;34.90;;;;;;5030296;28;20485;-63
2022/04/24 11:58:39;;;;;;;1.90;0.87;;;19.00;35.10;;;;;;5029905;28;20517;-63
2022/04/24 12:01:08;;;;;;;2.83;0.70;;;19.00;35.30;;;;;;5029424;28;20438;-64
2022/04/24 12:03:37;;;;;;;2.67;0.80;;;18.90;34.40;;;;;;5027921;28;20449;-64
2022/04/24 12:06:06;;;;;;;1.73;0.60;;;18.90;34.90;;;;;;5030220;28;20804;-64
2022/04/24 12:08:45;;;;;;;1.77;0.70;;;18.90;35.00;;;;;;5029645;28;20868;-63
2022/04/24 12:11:24;;;;;;;1.87;0.97;;;18.90;34.90;;;;;;5029027;28;20465;-63
2022/04/24 12:14:02;;;;;;;1.60;0.70;;;18.80;34.40;;;;;;5028828;28;20461;-64
2022/04/24 12:16:30;;;;;;;1.67;0.60;;;18.70;34.30;;;;;;5027674;28;20445;-64
2022/04/24 12:18:59;;;;;;;1.70;0.50;;;18.50;34.70;;;;;;5028665;28;20446;-64
2022/04/24 12:21:27;;;;;;;1.40;0.50;;;18.30;34.30;;;;;;5029977;28;20472;-63
2022/04/24 12:23:57;;;;;;;3.50;0.83;;;18.20;34.60;;;;;;5029605;28;20532;-64
2022/04/24 12:26:24;;;;;;;2.23;0.80;;;18.10;34.90;;;;;;5029791;28;20524;-63
2022/04/24 12:28:52;;;;;;;2.00;0.80;;;18.10;35.60;;;;;;5028981;28;20531;-64
2022/04/24 12:31:23;;;;;;;1.67;0.63;;;18.00;35.70;;;;;;5029048;28;20444;-63
2022/04/24 12:33:52;;;;;;;1.60;0.60;;;17.90;35.60;;;;;;5030373;28;20470;-63
2022/04/24 12:36:20;;;;;;;2.30;0.77;;;17.70;35.50;;;;;;5025490;28;20516;-65
2022/04/24 12:38:59;;;;;;;1.73;0.50;;;17.60;35.90;;;;;;5027855;28;20492;-64
2022/04/24 12:41:27;;;;;;;1.80;0.70;;;17.50;35.70;;;;;;5027958;28;20869;-64
2022/04/24 12:43:56;;;;;;;1.60;0.70;;;17.30;35.80;;;;;;5029627;28;20923;-65
2022/04/24 12:46:25;;;;;;;1.93;0.80;;;17.20;36.20;;;;;;5028471;28;21182;-63
2022/04/24 12:48:54;;;;;;;1.70;0.60;;;17.10;36.40;;;;;;5029509;28;20623;-63
2022/04/24 12:51:23;;;;;;;2.53;0.77;;;16.90;36.30;;;;;;5028889;28;21042;-63
2022/04/24 12:53:51;;;;;;;1.60;0.63;;;16.80;36.80;;;;;;5026642;28;20446;-63
2022/04/24 12:56:20;;;;;;;2.10;1.07;;;16.70;37.50;;;;;;5028382;28;20496;-63